Time;durP1;ratioP1;P1;durP2;ratioP2;P2;SDS_P1;SDS_P2;PMS_P1;PMS_P2;Temp;Humidity;BMP_temperature;BMP_pressure;BME280_temperature;BME280_humidity;BME280_pressure;Samples;Min_cycle;Max_cycle;Signal;HPM_P1;HPM_P2
2024/04/16 00:02:25;;;;;;;0.45;0.25;;;;;;;10.01;56.86;100267.00;5413389;26;20007;-84
2024/04/16 00:04:51;;;;;;;0.10;0.10;;;;;;;9.94;56.91;100254.84;5400321;26;20008;-84
2024/04/16 00:07:18;;;;;;;0.10;0.10;;;;;;;9.86;56.81;100260.34;5410366;26;20019;-83
2024/04/16 00:09:44;;;;;;;0.10;0.10;;;;;;;9.84;56.70;100248.06;5403365;26;20014;-85
2024/04/16 00:12:10;;;;;;;0.10;0.10;;;;;;;9.90;56.90;100253.19;5420975;26;19999;-80
2024/04/16 00:14:37;;;;;;;0.10;0.10;;;;;;;10.00;56.57;100249.38;5408797;26;19991;-83
2024/04/16 00:17:06;;;;;;;0.10;0.10;;;;;;;9.98;56.44;100240.63;5406957;26;20483;-82
2024/04/16 00:19:32;;;;;;;0.10;0.10;;;;;;;9.98;56.51;100248.56;5413354;26;20073;-81
2024/04/16 00:22:01;;;;;;;0.10;0.10;;;;;;;9.93;58.08;100231.97;5404138;26;20030;-81
2024/04/16 00:24:27;;;;;;;0.10;0.10;;;;;;;9.80;58.74;100251.72;5393714;26;20050;-81
2024/04/16 00:26:54;;;;;;;0.10;0.10;;;;;;;9.66;59.49;100236.19;5392977;26;20014;-82
2024/04/16 00:29:20;;;;;;;0.10;0.10;;;;;;;9.53;60.02;100232.97;5400473;26;20039;-82
2024/04/16 00:31:46;;;;;;;0.10;0.10;;;;;;;9.42;60.62;100229.75;5396673;26;20000;-82
2024/04/16 00:34:12;;;;;;;0.10;0.10;;;;;;;9.30;60.85;100221.22;5388554;26;20016;-83
2024/04/16 00:36:39;;;;;;;0.20;0.20;;;;;;;9.22;61.11;100233.75;5410061;26;20073;-82
2024/04/16 00:39:11;;;;;;;11.50;2.20;;;;;;;9.27;61.24;100216.03;5417177;26;20008;-80
2024/04/16 00:41:39;;;;;;;3.40;2.05;;;;;;;9.24;61.49;100218.72;5415925;26;20014;-80
2024/04/16 00:44:05;;;;;;;0.10;0.10;;;;;;;9.21;61.73;100214.38;5399459;26;20117;-82
2024/04/16 00:46:32;;;;;;;0.10;0.10;;;;;;;9.13;61.69;100218.97;5397856;26;19995;-84
2024/04/16 00:48:59;;;;;;;0.10;0.10;;;;;;;8.98;61.88;100230.78;5396181;26;20011;-81
2024/04/16 00:51:26;;;;;;;0.10;0.10;;;;;;;8.83;62.62;100242.56;5402214;26;20669;-83
2024/04/16 00:53:52;;;;;;;0.10;0.10;;;;;;;8.78;62.31;100211.91;5395309;26;20011;-84
2024/04/16 00:56:18;;;;;;;0.10;0.10;;;;;;;8.64;62.73;100205.13;5399925;26;20004;-81
2024/04/16 00:58:45;;;;;;;0.10;0.10;;;;;;;8.58;62.85;100192.06;5398407;26;20480;-82
2024/04/16 01:01:11;;;;;;;0.10;0.10;;;;;;;8.48;63.38;100185.25;5400993;26;20000;-83
2024/04/16 01:03:38;;;;;;;0.10;0.10;;;;;;;8.45;63.55;100186.16;5407661;26;20456;-81
2024/04/16 01:06:04;;;;;;;0.10;0.10;;;;;;;8.42;63.99;100179.19;5401058;26;20015;-81
2024/04/16 01:08:31;;;;;;;0.10;0.10;;;;;;;8.45;64.15;100180.88;5402004;26;19995;-84
2024/04/16 01:10:57;;;;;;;0.10;0.10;;;;;;;8.53;63.86;100178.97;5394547;26;20004;-83
2024/04/16 01:13:23;;;;;;;0.10;0.10;;;;;;;8.53;64.18;100184.25;5405072;26;19991;-85
2024/04/16 01:15:49;;;;;;;0.10;0.10;;;;;;;8.51;64.46;100194.00;5404855;26;20004;-83
2024/04/16 01:18:16;;;;;;;0.10;0.10;;;;;;;8.61;64.30;100177.94;5398098;26;20666;-84
2024/04/16 01:20:42;;;;;;;0.10;0.10;;;;;;;8.69;64.15;100176.84;5415133;26;20074;-82
2024/04/16 01:23:09;;;;;;;0.10;0.10;;;;;;;8.70;64.04;100183.88;5401363;26;20000;-81
2024/04/16 01:25:35;;;;;;;0.10;0.10;;;;;;;8.78;64.20;100182.84;5397541;26;19991;-81
2024/04/16 01:28:03;;;;;;;0.10;0.10;;;;;;;8.87;64.04;100187.88;5394295;26;20015;-84
2024/04/16 01:30:29;;;;;;;0.10;0.10;;;;;;;8.80;64.64;100244.41;5398029;26;19999;-82
2024/04/16 01:32:55;;;;;;;0.47;0.47;;;;;;;8.66;64.25;100216.56;5408824;26;20006;-81
2024/04/16 01:35:21;;;;;;;0.10;0.10;;;;;;;8.42;64.97;100245.19;5395046;26;20061;-83
2024/04/16 01:37:48;;;;;;;0.10;0.10;;;;;;;8.15;66.13;100222.88;5404049;26;19999;-82
2024/04/16 01:40:15;;;;;;;0.10;0.10;;;;;;;8.01;66.51;100215.22;5395701;26;20576;-82
2024/04/16 01:42:41;;;;;;;0.10;0.10;;;;;;;7.96;66.17;100205.66;5411340;26;20331;-81
2024/04/16 01:45:07;;;;;;;0.10;0.10;;;;;;;7.86;67.11;100220.78;5414106;26;20003;-79
2024/04/16 01:47:33;;;;;;;0.10;0.10;;;;;;;7.77;67.18;100216.53;5429334;26;19983;-79
2024/04/16 01:50:00;;;;;;;0.10;0.10;;;;;;;7.76;66.97;100217.44;5416135;26;20320;-81
2024/04/16 01:52:26;;;;;;;0.10;0.10;;;;;;;7.63;67.62;100211.53;5403501;26;20455;-79
2024/04/16 01:54:52;;;;;;;0.10;0.10;;;;;;;7.60;67.82;100215.09;5401695;26;20003;-82
2024/04/16 01:57:18;;;;;;;0.10;0.10;;;;;;;7.64;67.83;100215.03;5414245;26;20018;-81
2024/04/16 01:59:44;;;;;;;0.17;0.17;;;;;;;7.56;67.81;100207.25;5392133;26;19996;-82
2024/04/16 02:02:12;;;;;;;0.10;0.10;;;;;;;7.65;67.60;100200.94;5397949;26;20467;-81
2024/04/16 02:04:41;;;;;;;0.10;0.10;;;;;;;7.61;67.75;100179.94;5403659;26;19995;-81
2024/04/16 02:07:07;;;;;;;0.10;0.10;;;;;;;7.60;67.70;100198.38;5413185;26;20285;-79
2024/04/16 02:09:34;;;;;;;0.10;0.10;;;;;;;7.59;68.19;100188.75;5399890;26;19993;-81
2024/04/16 02:12:01;;;;;;;0.10;0.10;;;;;;;7.63;68.05;100198.34;5396635;26;20003;-81
2024/04/16 02:14:27;;;;;;;0.17;0.17;;;;;;;7.60;68.66;100182.56;5397340;26;19999;-82
2024/04/16 02:16:53;;;;;;;0.10;0.10;;;;;;;7.68;67.95;100178.03;5406264;26;20080;-81
2024/04/16 02:19:19;;;;;;;0.10;0.10;;;;;;;7.69;68.00;100169.22;5402428;26;20011;-81
2024/04/16 02:21:45;;;;;;;0.10;0.10;;;;;;;7.71;68.14;100158.66;5401678;26;19996;-81
2024/04/16 02:24:11;;;;;;;0.10;0.10;;;;;;;7.74;68.05;100158.59;5391220;26;20105;-81
2024/04/16 02:26:38;;;;;;;0.10;0.10;;;;;;;7.73;68.23;100148.94;5397984;26;19996;-82
2024/04/16 02:29:04;;;;;;;0.10;0.10;;;;;;;7.76;68.00;100147.13;5399468;26;19996;-79
2024/04/16 02:31:30;;;;;;;0.10;0.10;;;;;;;7.75;68.43;100134.84;5421669;26;20004;-82
2024/04/16 02:33:57;;;;;;;0.10;0.10;;;;;;;7.77;68.21;100135.66;5416622;26;20028;-81
2024/04/16 02:36:23;;;;;;;0.17;0.17;;;;;;;7.74;68.46;100141.00;5412684;26;20004;-81
2024/04/16 02:38:51;;;;;;;0.10;0.10;;;;;;;7.77;68.41;100132.16;5401269;26;20019;-81
2024/04/16 02:41:18;;;;;;;0.10;0.10;;;;;;;7.77;68.64;100127.75;5415284;26;20408;-80
2024/04/16 02:43:44;;;;;;;0.10;0.10;;;;;;;7.81;68.10;100109.22;5412765;26;20032;-82
2024/04/16 02:46:10;;;;;;;0.10;0.10;;;;;;;7.78;68.39;100108.38;5413268;26;20011;-81
2024/04/16 02:48:36;;;;;;;0.10;0.10;;;;;;;7.80;68.23;100110.13;5404607;26;20028;-81
2024/04/16 02:51:03;;;;;;;0.10;0.10;;;;;;;7.81;68.23;100101.31;5410450;26;20013;-81
2024/04/16 02:53:29;;;;;;;0.20;0.20;;;;;;;7.78;69.08;100100.47;5417187;26;20050;-79
2024/04/16 02:55:55;;;;;;;0.10;0.10;;;;;;;7.84;68.93;100095.97;5412076;26;20015;-81
2024/04/16 02:58:21;;;;;;;0.10;0.10;;;;;;;7.86;68.91;100091.53;5412705;26;20003;-80
2024/04/16 03:00:48;;;;;;;0.10;0.10;;;;;;;7.88;68.75;100080.06;5406046;26;20004;-82
2024/04/16 03:03:14;;;;;;;0.10;0.10;;;;;;;7.89;69.46;100088.84;5406776;26;20011;-80
2024/04/16 03:05:40;;;;;;;0.28;0.28;;;;;;;7.99;68.81;100084.22;5390301;26;20091;-80
2024/04/16 03:08:07;;;;;;;0.25;0.17;;;;;;;7.99;69.31;100081.59;5406674;26;20004;-82
2024/04/16 03:10:38;;;;;;;0.10;0.10;;;;;;;8.06;69.41;100070.91;5405067;26;20035;-81
2024/04/16 03:13:04;;;;;;;0.10;0.10;;;;;;;8.15;69.16;100063.66;5398597;26;20032;-81
2024/04/16 03:15:30;;;;;;;0.10;0.10;;;;;;;8.22;69.33;100062.63;5392131;26;20462;-79
2024/04/16 03:17:56;;;;;;;0.10;0.10;;;;;;;8.27;69.58;100066.00;5387266;26;20058;-81
2024/04/16 03:20:22;;;;;;;0.10;0.10;;;;;;;8.39;68.97;100056.97;5404970;26;19995;-80
2024/04/16 03:22:51;;;;;;;0.10;0.10;;;;;;;8.46;69.12;100048.03;5390339;26;19996;-81
2024/04/16 03:25:18;;;;;;;0.10;0.10;;;;;;;8.60;68.79;100045.03;5405818;26;20003;-79
2024/04/16 03:27:44;;;;;;;0.10;0.10;;;;;;;8.65;68.80;100043.16;5408322;26;20552;-81
2024/04/16 03:30:10;;;;;;;0.10;0.10;;;;;;;8.66;68.92;100050.19;5397874;26;20008;-83
2024/04/16 03:32:36;;;;;;;0.30;0.30;;;;;;;8.79;68.62;100044.59;5410585;26;20417;-80
2024/04/16 03:35:03;;;;;;;0.10;0.10;;;;;;;8.83;68.62;100046.22;5408717;26;20015;-81
2024/04/16 03:37:29;;;;;;;0.10;0.10;;;;;;;8.92;68.55;100029.28;5405682;26;20016;-82
2024/04/16 03:39:55;;;;;;;0.10;0.10;;;;;;;8.93;68.59;100028.38;5400049;26;20012;-81
2024/04/16 03:42:21;;;;;;;0.10;0.10;;;;;;;8.82;68.71;100044.50;5399573;26;19996;-81
2024/04/16 03:44:50;;;;;;;0.10;0.10;;;;;;;8.82;68.83;100042.75;5405520;26;20342;-82
2024/04/16 03:47:16;;;;;;;0.10;0.10;;;;;;;8.81;68.88;100037.47;5406245;26;20444;-78
2024/04/16 03:49:43;;;;;;;0.10;0.10;;;;;;;8.81;68.76;100042.75;5409626;26;19999;-80
2024/04/16 03:52:09;;;;;;;0.10;0.10;;;;;;;8.71;68.80;100053.56;5402127;26;20019;-80
2024/04/16 03:54:35;;;;;;;0.10;0.10;;;;;;;8.65;68.67;100047.53;5392642;26;20045;-81
2024/04/16 03:57:01;;;;;;;0.10;0.10;;;;;;;8.59;68.96;100064.44;5398749;26;20014;-81
2024/04/16 04:02:19;;;;;;;0.10;0.10;;;;;;;8.48;68.98;100029.50;5416244;26;20005;-79
2024/04/16 04:04:46;;;;;;;0.17;0.17;;;;;;;8.38;69.29;100036.75;5401738;26;20001;-79
2024/04/16 04:07:12;;;;;;;0.10;0.10;;;;;;;8.31;69.58;100049.22;5393427;26;20012;-81
2024/04/16 04:09:38;;;;;;;0.10;0.10;;;;;;;8.28;69.89;100017.63;5398672;26;20024;-81
2024/04/16 04:12:05;;;;;;;0.10;0.10;;;;;;;8.19;70.27;100025.75;5414097;26;19996;-81
2024/04/16 04:14:31;;;;;;;0.10;0.10;;;;;;;8.21;70.13;100005.47;5400660;26;20016;-78
2024/04/16 04:16:57;;;;;;;0.10;0.10;;;;;;;8.18;70.47;100003.75;5403824;26;20004;-81
2024/04/16 04:19:23;;;;;;;0.10;0.10;;;;;;;8.17;70.46;99998.53;5409992;26;20055;-79
2024/04/16 04:21:49;;;;;;;0.10;0.10;;;;;;;8.14;70.97;100010.03;5410757;26;20527;-78
2024/04/16 04:24:17;;;;;;;0.10;0.10;;;;;;;8.03;71.49;99981.25;5392348;26;20343;-83
2024/04/16 04:26:43;;;;;;;0.10;0.10;;;;;;;8.08;71.60;100005.75;5412469;26;20509;-81
2024/04/16 04:29:10;;;;;;;0.10;0.10;;;;;;;8.16;71.34;99973.03;5402675;26;19996;-81
2024/04/16 04:31:36;;;;;;;0.10;0.10;;;;;;;8.13;71.85;99970.50;5407124;26;20027;-80
2024/04/16 04:34:03;;;;;;;0.10;0.10;;;;;;;8.15;72.03;99952.84;5404839;26;19992;-79
2024/04/16 04:36:29;;;;;;;0.10;0.10;;;;;;;8.23;71.80;99940.31;5406951;26;20011;-77
2024/04/16 04:38:55;;;;;;;0.10;0.10;;;;;;;8.17;71.95;99935.19;5399715;26;20004;-79
2024/04/16 04:41:21;;;;;;;0.10;0.10;;;;;;;8.25;71.84;99920.91;5403550;26;19991;-77
2024/04/16 04:43:51;;;;;;;0.10;0.10;;;;;;;8.20;72.65;99936.00;5395408;26;19996;-80
2024/04/16 04:46:18;;;;;;;0.10;0.10;;;;;;;8.31;72.17;99932.22;5413091;26;20451;-80
2024/04/16 04:48:44;;;;;;;0.13;0.13;;;;;;;8.37;72.23;99925.03;5415390;26;20027;-80
2024/04/16 04:51:10;;;;;;;0.10;0.10;;;;;;;8.40;72.35;99929.34;5425065;26;20007;-81
2024/04/16 04:53:37;;;;;;;0.10;0.10;;;;;;;8.50;72.44;99932.63;5418996;26;20442;-81
2024/04/16 04:56:04;;;;;;;0.10;0.10;;;;;;;8.52;72.69;99926.44;5418522;26;19999;-83
2024/04/16 04:58:30;;;;;;;0.10;0.10;;;;;;;8.61;72.77;99935.00;5404802;26;20464;-81
2024/04/16 05:00:56;;;;;;;0.10;0.10;;;;;;;8.64;73.08;99937.56;5412938;26;20008;-81
2024/04/16 05:03:22;;;;;;;0.10;0.10;;;;;;;8.68;73.77;99936.56;5405303;26;20385;-79
2024/04/16 05:05:48;;;;;;;0.10;0.10;;;;;;;8.81;74.02;99955.59;5423253;26;20023;-80
2024/04/16 05:08:15;;;;;;;0.00;0.00;;;;;;;8.95;73.99;99945.53;5425600;26;19999;-81
2024/04/16 05:10:41;;;;;;;0.10;0.10;;;;;;;9.06;74.47;99945.22;5414445;26;20343;-80
2024/04/16 05:13:07;;;;;;;19.27;1.27;;;;;;;9.20;74.36;99955.41;5416606;26;20023;-81
2024/04/16 05:15:33;;;;;;;0.10;0.10;;;;;;;9.34;73.64;99969.06;5404094;26;20007;-81
2024/04/16 05:18:00;;;;;;;0.10;0.10;;;;;;;9.38;73.99;99981.31;5390048;26;20045;-79
2024/04/16 05:20:26;;;;;;;0.10;0.10;;;;;;;9.57;73.82;99996.66;5407333;26;19995;-78
2024/04/16 05:22:52;;;;;;;0.10;0.10;;;;;;;9.62;73.52;99989.44;5423785;26;20022;-80
2024/04/16 05:25:18;;;;;;;0.10;0.10;;;;;;;9.63;73.36;99983.25;5411729;26;20020;-79
2024/04/16 05:27:44;;;;;;;0.20;0.20;;;;;;;9.66;73.17;99991.06;5409664;26;19995;-82
2024/04/16 05:30:11;;;;;;;0.28;0.28;;;;;;;9.69;73.00;99996.28;5406694;26;20054;-81
2024/04/16 05:32:37;;;;;;;0.10;0.10;;;;;;;9.75;72.96;100004.94;5394677;26;19996;-83
2024/04/16 05:35:04;;;;;;;0.10;0.10;;;;;;;9.76;72.42;100011.94;5407667;26;20000;-82
2024/04/16 05:37:30;;;;;;;0.10;0.10;;;;;;;9.79;72.07;100011.84;5414118;26;20008;-81
2024/04/16 05:39:56;;;;;;;0.20;0.20;;;;;;;9.79;71.89;100007.41;5414863;26;20003;-83
2024/04/16 05:42:22;;;;;;;0.10;0.10;;;;;;;9.76;71.48;100027.81;5412214;26;20033;-84
2024/04/16 05:44:48;;;;;;;0.22;0.22;;;;;;;9.86;71.40;100024.00;5409801;26;20079;-81
2024/04/16 05:47:14;;;;;;;0.10;0.10;;;;;;;9.99;71.33;100014.78;5406357;26;20058;-83
2024/04/16 05:49:41;;;;;;;0.10;0.10;;;;;;;9.96;70.92;100016.66;5401191;26;20008;-80
2024/04/16 05:52:07;;;;;;;0.10;0.10;;;;;;;10.02;70.73;100035.00;5398406;26;20305;-83
2024/04/16 05:54:33;;;;;;;0.10;0.10;;;;;;;10.06;70.87;100035.75;5395556;26;20000;-84
2024/04/16 05:57:00;;;;;;;0.10;0.10;;;;;;;9.96;70.34;100030.72;5404955;26;20463;-81
2024/04/16 05:59:26;;;;;;;0.10;0.10;;;;;;;10.04;70.35;100034.03;5404673;26;19999;-82
2024/04/16 06:01:52;;;;;;;0.15;0.15;;;;;;;10.11;70.40;100032.03;5391441;26;20471;-82
2024/04/16 06:04:18;;;;;;;0.10;0.10;;;;;;;10.01;69.52;100057.91;5400281;26;20004;-83
2024/04/16 06:06:44;;;;;;;0.13;0.13;;;;;;;10.04;69.88;100047.25;5411405;26;20007;-81
2024/04/16 06:09:11;;;;;;;0.10;0.10;;;;;;;10.03;69.09;100066.69;5414748;26;20367;-84
2024/04/16 06:11:37;;;;;;;0.75;0.75;;;;;;;10.07;69.05;100056.88;5410730;26;20004;-85
2024/04/16 06:14:03;;;;;;;0.10;0.10;;;;;;;10.11;68.76;100055.88;5409194;26;20068;-87
2024/04/16 06:16:29;;;;;;;0.95;0.95;;;;;;;10.12;68.57;100062.00;5415612;26;20523;-87
2024/04/16 06:18:55;;;;;;;0.10;0.10;;;;;;;10.23;68.29;100053.75;5400025;26;19992;-84
2024/04/16 06:21:22;;;;;;;0.10;0.10;;;;;;;10.28;68.24;100055.34;5396766;26;20007;-85
2024/04/16 06:23:49;;;;;;;0.10;0.10;;;;;;;10.26;68.62;100065.13;5399467;26;20000;-84
2024/04/16 06:26:15;;;;;;;0.10;0.10;;;;;;;10.30;68.94;100081.78;5408495;26;19995;-84
2024/04/16 06:28:41;;;;;;;0.10;0.10;;;;;;;10.31;69.30;100084.38;5397690;26;20023;-81
2024/04/16 06:31:07;;;;;;;0.10;0.10;;;;;;;10.33;68.96;100124.03;5391972;26;20007;-82
2024/04/16 06:33:36;;;;;;;0.10;0.10;;;;;;;10.17;69.43;100083.94;5400292;26;20002;-84
2024/04/16 06:36:04;;;;;;;0.10;0.10;;;;;;;10.03;69.86;100085.22;5404239;26;20077;-83
2024/04/16 06:38:31;;;;;;;0.10;0.10;;;;;;;10.10;69.50;100074.44;5396747;26;20059;-82
2024/04/16 06:41:01;;;;;;;0.10;0.10;;;;;;;10.06;69.73;100086.91;5404526;26;20392;-83
2024/04/16 06:43:28;;;;;;;0.10;0.10;;;;;;;10.04;70.16;100080.78;5410610;26;20051;-80
2024/04/16 06:45:56;;;;;;;0.65;0.65;;;;;;;10.11;70.34;100081.47;5398845;26;20354;-80
2024/04/16 06:48:22;;;;;;;0.10;0.10;;;;;;;10.11;70.44;100092.91;5392971;26;19992;-82
2024/04/16 06:50:49;;;;;;;0.10;0.10;;;;;;;10.11;70.48;100090.28;5396011;26;20004;-82
2024/04/16 06:53:15;;;;;;;0.10;0.10;;;;;;;10.18;70.88;100094.47;5397975;26;20467;-82
2024/04/16 06:55:41;;;;;;;0.10;0.10;;;;;;;10.38;70.38;100100.09;5418777;26;20356;-82
2024/04/16 06:58:08;;;;;;;0.10;0.10;;;;;;;10.46;70.00;100111.31;5410359;26;20004;-83
2024/04/16 07:00:34;;;;;;;0.10;0.10;;;;;;;10.63;69.32;100095.75;5421269;26;20004;-85
2024/04/16 07:03:01;;;;;;;0.57;0.57;;;;;;;10.73;68.69;100108.69;5410265;26;20011;-82
2024/04/16 07:05:27;;;;;;;0.10;0.10;;;;;;;10.82;68.35;100124.31;5402417;26;20000;-82
2024/04/16 07:07:53;;;;;;;0.10;0.10;;;;;;;10.76;67.84;100120.06;5400718;26;20414;-83
2024/04/16 07:10:19;;;;;;;0.10;0.10;;;;;;;10.76;67.73;100143.91;5409831;26;20362;-85
2024/04/16 07:12:45;;;;;;;0.10;0.10;;;;;;;10.89;67.56;100133.81;5391811;26;20020;-84
2024/04/16 07:15:11;;;;;;;0.90;0.90;;;;;;;10.87;68.08;100132.97;5393979;26;20000;-86
2024/04/16 07:17:38;;;;;;;0.10;0.10;;;;;;;10.87;68.17;100145.38;5402762;26;20463;-81
2024/04/16 07:20:05;;;;;;;0.10;0.10;;;;;;;10.81;68.22;100146.44;5406860;26;20006;-85
2024/04/16 07:22:32;;;;;;;0.10;0.10;;;;;;;10.79;68.26;100166.78;5407758;26;20015;-82
2024/04/16 07:24:58;;;;;;;0.40;0.40;;;;;;;10.71;68.15;100175.00;5419838;26;20294;-82
2024/04/16 07:27:24;;;;;;;0.10;0.10;;;;;;;10.62;68.73;100176.16;5414308;26;20053;-80
2024/04/16 07:29:50;;;;;;;1.38;1.38;;;;;;;10.61;69.58;100176.19;5405440;26;19995;-82
2024/04/16 07:32:16;;;;;;;0.10;0.10;;;;;;;10.55;69.56;100179.88;5410523;26;20467;-83
2024/04/16 07:34:43;;;;;;;0.20;0.20;;;;;;;10.61;69.73;100182.34;5401465;26;20076;-82
2024/04/16 07:37:09;;;;;;;0.10;0.10;;;;;;;10.61;69.87;100182.34;5408926;26;19996;-82
2024/04/16 07:39:35;;;;;;;0.25;0.25;;;;;;;10.70;69.99;100175.06;5399915;26;20000;-83
2024/04/16 07:42:01;;;;;;;0.10;0.10;;;;;;;10.74;69.75;100192.56;5407025;26;20036;-82
2024/04/16 07:44:27;;;;;;;0.10;0.10;;;;;;;10.79;69.38;100233.03;5411243;26;20369;-83
2024/04/16 07:46:55;;;;;;;0.10;0.10;;;;;;;10.75;69.11;100192.53;5395251;26;19999;-82
2024/04/16 07:49:21;;;;;;;0.10;0.10;;;;;;;10.60;69.66;100193.84;5399017;26;20009;-82
2024/04/16 07:51:49;;;;;;;0.10;0.10;;;;;;;10.54;69.93;100194.03;5407555;26;20014;-83
2024/04/16 07:54:15;;;;;;;4.50;2.65;;;;;;;10.59;70.30;100194.81;5419099;26;19999;-83
2024/04/16 07:56:41;;;;;;;0.10;0.10;;;;;;;10.63;70.41;100201.72;5414299;26;20003;-83
2024/04/16 07:59:07;;;;;;;0.10;0.10;;;;;;;10.67;70.03;100203.38;5417506;26;20007;-83
2024/04/16 08:01:33;;;;;;;0.20;0.20;;;;;;;10.68;69.83;100206.91;5424384;26;20000;-83
2024/04/16 08:04:00;;;;;;;0.10;0.10;;;;;;;10.81;69.87;100221.47;5410659;26;20006;-82
2024/04/16 08:06:26;;;;;;;0.10;0.10;;;;;;;10.90;69.89;100204.41;5405842;26;19996;-82
2024/04/16 08:08:56;;;;;;;0.00;0.00;;;;;;;10.97;69.78;100205.97;5406819;26;19995;-82
2024/04/16 08:11:22;;;;;;;0.10;0.10;;;;;;;11.09;69.40;100219.75;5415067;26;20043;-81
2024/04/16 08:13:50;;;;;;;0.10;0.10;;;;;;;11.13;69.54;100221.41;5425340;26;20011;-81
2024/04/16 08:16:16;;;;;;;0.10;0.10;;;;;;;11.15;68.67;100241.63;5410673;26;19992;-82
2024/04/16 08:18:42;;;;;;;0.50;0.50;;;;;;;11.27;68.50;100239.50;5425825;26;19999;-82
2024/04/16 08:21:08;;;;;;;0.10;0.10;;;;;;;11.37;68.41;100254.19;5420007;26;20003;-82
2024/04/16 08:23:35;;;;;;;0.10;0.10;;;;;;;11.46;68.15;100255.66;5416209;26;19996;-82
2024/04/16 08:26:02;;;;;;;0.55;0.55;;;;;;;11.48;67.81;100264.47;5424252;26;20050;-82
2024/04/16 08:28:30;;;;;;;0.10;0.10;;;;;;;11.55;68.20;100271.31;5418808;26;19996;-82
2024/04/16 08:30:57;;;;;;;0.00;0.00;;;;;;;11.47;67.60;100274.19;5426858;26;20007;-81
2024/04/16 08:33:24;;;;;;;0.10;0.10;;;;;;;11.54;67.61;100269.56;5416142;26;19991;-82
2024/04/16 08:35:51;;;;;;;0.75;0.75;;;;;;;11.60;67.54;100277.31;5407870;26;20000;-81
2024/04/16 08:38:19;;;;;;;0.10;0.10;;;;;;;11.65;67.72;100287.75;5410074;26;20347;-82
2024/04/16 08:40:45;;;;;;;0.10;0.10;;;;;;;11.69;67.35;100293.84;5398039;26;19999;-81
2024/04/16 08:43:12;;;;;;;0.10;0.10;;;;;;;11.64;68.10;100289.56;5411463;26;20015;-81
2024/04/16 08:45:42;;;;;;;0.10;0.10;;;;;;;11.63;68.07;100301.09;5417542;26;19999;-81
2024/04/16 08:48:08;;;;;;;0.03;0.03;;;;;;;11.62;68.09;100299.34;5397403;26;20446;-81
2024/04/16 08:50:36;;;;;;;0.10;0.10;;;;;;;11.68;67.92;100313.34;5404621;26;20008;-82
2024/04/16 08:53:03;;;;;;;0.10;0.10;;;;;;;11.64;67.63;100302.81;5404319;26;20000;-82
2024/04/16 08:55:32;;;;;;;0.30;0.30;;;;;;;11.72;67.54;100320.28;5400143;26;20011;-83
2024/04/16 08:57:59;;;;;;;0.15;0.15;;;;;;;11.70;67.55;100315.03;5405755;26;20347;-84
2024/04/16 09:00:25;;;;;;;0.10;0.10;;;;;;;11.61;67.67;100334.78;5406815;26;20072;-84
2024/04/16 09:02:52;;;;;;;6.45;1.48;;;;;;;11.64;66.96;100329.34;5410052;26;19995;-85
2024/04/16 09:05:18;;;;;;;0.10;0.10;;;;;;;11.77;66.86;100337.78;5400574;26;20011;-85
2024/04/16 09:07:46;;;;;;;0.10;0.10;;;;;;;11.78;66.53;100325.38;5416158;26;20010;-85
2024/04/16 09:10:22;;;;;;;0.10;0.10;;;;;;;11.88;66.55;100334.78;5402065;26;20011;-84
2024/04/16 09:12:48;;;;;;;0.00;0.00;;;;;;;11.74;66.54;100344.97;5412054;26;20006;-84
2024/04/16 09:15:17;;;;;;;0.10;0.10;;;;;;;11.81;66.49;100360.66;5408016;26;20000;-82
2024/04/16 09:17:52;;;;;;;0.10;0.10;;;;;;;11.84;65.79;100372.97;5414066;26;20006;-83
2024/04/16 09:20:20;;;;;;;0.25;0.25;;;;;;;11.85;65.88;100371.16;5420564;26;20000;-83
2024/04/16 09:22:48;;;;;;;0.00;0.00;;;;;;;11.93;65.46;100364.69;5413327;26;20031;-85
2024/04/16 09:25:16;;;;;;;0.10;0.10;;;;;;;11.97;64.90;100369.03;5399971;26;20000;-83
2024/04/16 09:27:45;;;;;;;0.10;0.10;;;;;;;12.02;64.95;100375.97;5397947;26;20014;-83
2024/04/16 09:30:12;;;;;;;0.10;0.10;;;;;;;12.01;65.52;100422.00;5404443;26;20051;-83
2024/04/16 09:32:39;;;;;;;0.10;0.10;;;;;;;11.84;65.37;100409.25;5390106;26;20004;-82
2024/04/16 09:35:05;;;;;;;0.10;0.10;;;;;;;11.60;65.85;100410.00;5399864;26;20049;-82
2024/04/16 09:37:32;;;;;;;0.25;0.25;;;;;;;11.38;66.57;100419.53;5418916;26;20037;-83
2024/04/16 09:40:00;;;;;;;0.10;0.10;;;;;;;11.19;66.88;100412.13;5412900;26;20442;-83
2024/04/16 09:42:26;;;;;;;0.95;0.95;;;;;;;11.00;67.61;100423.25;5398531;26;20004;-83
2024/04/16 09:44:54;;;;;;;0.10;0.10;;;;;;;10.94;68.21;100411.94;5405921;26;20004;-82
2024/04/16 09:47:22;;;;;;;0.10;0.10;;;;;;;10.92;69.12;100443.78;5403453;26;20035;-81
2024/04/16 09:49:51;;;;;;;0.10;0.10;;;;;;;10.96;69.39;100431.34;5400145;26;19996;-81
2024/04/16 09:52:19;;;;;;;0.00;0.00;;;;;;;10.99;69.26;100432.13;5412129;26;19995;-82
2024/04/16 09:54:48;;;;;;;0.10;0.10;;;;;;;11.08;69.71;100435.41;5413662;26;20097;-82
2024/04/16 09:57:15;;;;;;;1.35;1.35;;;;;;;11.14;69.46;100440.53;5403500;26;20004;-85
2024/04/16 09:59:42;;;;;;;0.10;0.10;;;;;;;11.11;69.59;100451.22;5399011;26;19996;-85
2024/04/16 10:02:10;;;;;;;0.10;0.10;;;;;;;11.10;69.71;100439.78;5404404;26;20012;-83
2024/04/16 10:04:37;;;;;;;0.10;0.10;;;;;;;11.11;69.67;100456.53;5392859;26;19995;-82
2024/04/16 10:07:04;;;;;;;0.10;0.10;;;;;;;11.10;69.78;100463.63;5403376;26;19999;-83
2024/04/16 10:09:32;;;;;;;0.10;0.10;;;;;;;11.11;70.44;100475.09;5412668;26;20339;-83
2024/04/16 10:11:59;;;;;;;0.00;0.00;;;;;;;11.22;70.13;100470.34;5399426;26;20004;-83
2024/04/16 10:14:26;;;;;;;0.08;0.08;;;;;;;11.20;70.39;100474.81;5399320;26;20000;-83
2024/04/16 10:16:54;;;;;;;0.10;0.10;;;;;;;11.26;70.39;100487.06;5400810;26;20401;-83
2024/04/16 10:19:20;;;;;;;0.10;0.10;;;;;;;11.35;70.71;100470.00;5402734;26;20003;-83
2024/04/16 10:21:48;;;;;;;1.55;0.43;;;;;;;11.41;70.94;100472.47;5395371;26;20381;-82
2024/04/16 10:24:18;;;;;;;0.20;0.20;;;;;;;11.43;71.10;100484.78;5396535;26;20000;-82
2024/04/16 10:26:47;;;;;;;0.10;0.10;;;;;;;11.47;70.76;100485.56;5392372;26;20005;-84
2024/04/16 10:29:18;;;;;;;0.10;0.10;;;;;;;11.57;71.05;100483.50;5403190;26;20077;-83
2024/04/16 10:31:50;;;;;;;0.10;0.10;;;;;;;11.73;71.08;100484.78;5400526;26;20504;-80
2024/04/16 10:36:56;;;;;;;0.00;0.00;;;;;;;11.86;70.43;100487.91;5524263;25;1204473;-80
2024/04/16 10:39:32;;;;;;;0.17;0.17;;;;;;;11.91;70.12;100483.34;5514095;25;20002;-80
2024/04/16 10:42:01;;;;;;;0.00;0.00;;;;;;;11.80;69.85;100506.69;5521855;25;20752;-81
2024/04/16 10:44:28;;;;;;;0.10;0.10;;;;;;;11.82;69.83;100496.88;5522512;25;20001;-80
2024/04/16 10:46:56;;;;;;;0.10;0.10;;;;;;;11.75;69.87;100495.34;5511537;25;19999;-81
2024/04/16 10:49:24;;;;;;;0.10;0.10;;;;;;;11.74;70.19;100497.13;5507608;25;19997;-83
2024/04/16 10:51:51;;;;;;;0.10;0.10;;;;;;;11.80;70.03;100509.31;5506930;25;19998;-82
2024/04/16 10:54:18;;;;;;;0.10;0.10;;;;;;;11.84;70.30;100511.00;5499067;25;19998;-81
2024/04/16 10:56:47;;;;;;;0.10;0.10;;;;;;;11.89;70.29;100508.22;5509472;25;20074;-82
2024/04/16 10:59:15;;;;;;;0.40;0.40;;;;;;;11.85;70.44;100512.75;5506253;26;20008;-80
2024/04/16 11:01:43;;;;;;;0.10;0.10;;;;;;;11.88;70.31;100514.44;5509253;25;20473;-81
2024/04/16 11:04:14;;;;;;;0.10;0.10;;;;;;;11.98;70.67;100514.09;5499852;26;19993;-81
2024/04/16 11:06:41;;;;;;;0.10;0.10;;;;;;;12.09;70.59;100511.13;5505873;26;20005;-81
2024/04/16 11:09:08;;;;;;;0.10;0.10;;;;;;;12.27;70.64;100522.06;5508494;25;20145;-80
2024/04/16 11:11:34;;;;;;;0.10;0.10;;;;;;;12.42;70.74;100516.28;5513628;25;20043;-82
2024/04/16 11:14:02;;;;;;;0.10;0.10;;;;;;;12.64;70.49;100528.00;5517859;25;20008;-83
2024/04/16 11:16:28;;;;;;;0.10;0.10;;;;;;;12.68;69.79;100558.84;5518203;25;20013;-81
2024/04/16 11:18:56;;;;;;;0.10;0.10;;;;;;;12.72;68.48;100547.19;5517023;25;20372;-82
2024/04/16 11:21:25;;;;;;;0.10;0.10;;;;;;;12.78;68.39;100552.28;5532704;25;20023;-82
2024/04/16 11:23:52;;;;;;;0.13;0.13;;;;;;;12.76;66.56;100551.47;5516024;26;19997;-82
2024/04/16 11:26:18;;;;;;;0.10;0.10;;;;;;;12.79;66.65;100554.03;5519548;25;20051;-81
2024/04/16 11:28:44;;;;;;;0.10;0.10;;;;;;;12.68;66.22;100545.56;5511464;26;19998;-81
2024/04/16 11:31:10;;;;;;;0.10;0.10;;;;;;;12.66;66.34;100555.38;5513671;26;20020;-82
2024/04/16 11:33:37;;;;;;;0.38;0.38;;;;;;;12.64;66.44;100549.25;5507226;25;19994;-82